Terminal Aerodrome Forecast
Issued by NWS Grand Forks, ND

Home | Current Version | Previous Version | Text Only | Print | Product List | Glossary On
Versions: 1 2 3 4 5 6 7 8 9 10 11 12 13 14 15 16 17 18
000
FTUS43 KFGF 222337
TAFFAR
TAF
KFAR 222337Z 2300/2324 13007KT P6SM SCT040 OVC050
     FM230200 12006KT 2SM -SN OVC035
     FM230300 VRB06KT 1SM -SN OVC025
     FM231300 34007KT P6SM OVC040
     FM232100 27006KT P6SM FEW250=

USA.gov is the U.S. government's official web portal to all federal, state and local government web resources and services.